createdAt,value
2019-03-09T00:04:31.043Z,57.10
2019-03-09T00:09:35.671Z,57.40
2019-03-09T00:14:40.567Z,57.50
2019-03-09T00:19:44.983Z,57.60
2019-03-09T00:24:57.007Z,57.80
2019-03-09T00:30:35.806Z,57.70
2019-03-09T00:35:39.967Z,57.60
2019-03-09T00:40:44.018Z,58.20
2019-03-09T00:45:48.702Z,57.90
2019-03-09T00:50:53.235Z,57.40
2019-03-09T00:55:57.829Z,58.30
2019-03-09T01:01:02.358Z,57.70
2019-03-09T01:06:06.500Z,57.90
2019-03-09T01:11:10.587Z,57.90
2019-03-09T01:16:19.035Z,58.00
2019-03-09T01:21:23.203Z,58.10
2019-03-09T01:26:27.778Z,58.00
2019-03-09T01:31:32.131Z,58.10
2019-03-09T01:36:36.291Z,58.10
2019-03-09T01:41:40.610Z,58.60
2019-03-09T01:46:45.149Z,58.60
2019-03-09T01:51:50.216Z,58.60
2019-03-09T01:56:54.610Z,58.70
2019-03-09T02:01:58.658Z,59.00
2019-03-09T02:07:03.202Z,59.00
2019-03-09T02:12:07.333Z,59.10
2019-03-09T02:17:11.936Z,59.20
2019-03-09T02:22:16.487Z,59.50
2019-03-09T02:27:20.783Z,59.40
2019-03-09T02:32:25.049Z,59.80
2019-03-09T02:37:29.028Z,59.80
2019-03-09T02:42:33.028Z,60.90
2019-03-09T02:47:37.020Z,60.00
2019-03-09T02:52:41.752Z,60.00
2019-03-09T02:57:46.329Z,60.50
2019-03-09T03:02:57.024Z,59.80
2019-03-09T03:08:01.595Z,60.70
2019-03-09T03:13:05.719Z,60.60
2019-03-09T03:18:09.800Z,61.10
2019-03-09T03:23:14.389Z,61.10
2019-03-09T03:28:19.247Z,61.40
2019-03-09T03:33:23.512Z,61.40
2019-03-09T03:38:27.855Z,61.60
2019-03-09T03:43:32.190Z,61.60
2019-03-09T03:48:36.524Z,61.60
2019-03-09T03:53:40.819Z,61.80
2019-03-09T03:58:45.846Z,61.90
2019-03-09T04:03:50.690Z,61.70
2019-03-09T04:08:54.940Z,62.20
2019-03-09T04:13:59.232Z,62.40
2019-03-09T04:19:03.673Z,62.50
2019-03-09T04:24:09.483Z,63.40
2019-03-09T04:29:13.903Z,63.20
2019-03-09T04:34:18.444Z,63.10
2019-03-09T04:39:22.395Z,63.70
2019-03-09T04:44:27.332Z,63.50
2019-03-09T04:49:31.654Z,63.50
2019-03-09T04:54:36.139Z,64.00
2019-03-09T04:59:40.430Z,63.90
2019-03-09T05:04:54.283Z,64.20
2019-03-09T05:10:11.706Z,64.50
2019-03-09T05:15:15.883Z,64.70
2019-03-09T05:20:20.184Z,65.30
2019-03-09T05:25:24.331Z,66.00
2019-03-09T05:30:38.258Z,65.10
2019-03-09T05:35:42.619Z,65.00
2019-03-09T05:40:46.897Z,66.00
2019-03-09T05:45:50.995Z,65.80
2019-03-09T05:50:55.043Z,65.70
2019-03-09T05:55:58.968Z,66.10
2019-03-09T06:01:03.832Z,66.00
2019-03-09T06:06:18.359Z,65.80
2019-03-09T06:11:22.501Z,66.90
2019-03-09T06:16:26.545Z,65.70
2019-03-09T06:21:30.583Z,65.70
2019-03-09T06:26:35.268Z,65.30
2019-03-09T06:31:39.571Z,65.20
2019-03-09T06:37:05.170Z,65.20
2019-03-09T06:42:31.941Z,65.40
2019-03-09T06:47:36.273Z,65.20
2019-03-09T06:52:40.541Z,64.90
2019-03-09T06:57:45.295Z,65.00
2019-03-09T07:02:49.700Z,64.90
2019-03-09T07:07:53.751Z,64.70
2019-03-09T07:12:58.238Z,64.70
2019-03-09T07:18:05.205Z,64.80
2019-03-09T07:23:09.514Z,64.90
2019-03-09T07:28:16.894Z,65.00
2019-03-09T07:33:21.845Z,65.60
2019-03-09T07:38:26.336Z,65.10
2019-03-09T07:43:30.638Z,65.00
2019-03-09T07:48:35.203Z,64.80
2019-03-09T07:53:39.519Z,64.90
2019-03-09T07:58:43.514Z,65.00
2019-03-09T08:03:48.063Z,64.60
2019-03-09T08:08:52.503Z,64.70
2019-03-09T08:13:56.687Z,64.50
2019-03-09T08:19:00.600Z,64.60
2019-03-09T08:24:05.254Z,64.50
2019-03-09T08:29:10.073Z,64.80
2019-03-09T08:34:14.333Z,64.70
2019-03-09T08:39:18.869Z,64.60
2019-03-09T08:44:22.972Z,64.80
2019-03-09T08:49:27.704Z,64.60
2019-03-09T08:54:31.737Z,64.40
2019-03-09T09:05:00.332Z,64.30
2019-03-09T09:10:04.825Z,64.40
2019-03-09T09:15:09.968Z,64.00
2019-03-09T09:20:16.597Z,64.40
2019-03-09T09:25:20.913Z,64.60
2019-03-09T09:30:26.223Z,64.70
2019-03-09T09:35:30.843Z,64.10
2019-03-09T09:40:34.925Z,64.20
2019-03-09T09:45:39.226Z,63.80
2019-03-09T09:50:43.388Z,64.00
2019-03-09T09:55:47.967Z,64.30
2019-03-09T10:00:52.050Z,63.80
2019-03-09T10:05:56.150Z,64.00
2019-03-09T10:11:00.527Z,64.60
2019-03-09T10:16:04.608Z,64.60
2019-03-09T10:21:08.991Z,64.60
2019-03-09T10:26:13.387Z,64.80
2019-03-09T10:31:17.635Z,64.80
2019-03-09T10:36:22.320Z,65.60
2019-03-09T10:41:26.611Z,65.00
2019-03-09T10:46:30.899Z,64.80
2019-03-09T10:51:35.007Z,64.80
2019-03-09T10:56:39.403Z,64.90
2019-03-09T11:01:43.425Z,65.40
2019-03-09T11:06:47.735Z,64.90
2019-03-09T11:11:51.784Z,64.70
2019-03-09T11:16:57.131Z,64.80
2019-03-09T11:22:01.203Z,64.60
2019-03-09T11:27:05.814Z,65.00
2019-03-09T11:32:10.160Z,63.80
2019-03-09T11:37:14.154Z,63.90
2019-03-09T11:42:18.467Z,63.70
2019-03-09T11:47:22.975Z,63.40
2019-03-09T11:52:29.127Z,63.00
2019-03-09T11:57:33.672Z,63.10
2019-03-09T12:02:39.148Z,62.60
2019-03-09T12:07:43.664Z,62.40
2019-03-09T12:12:47.923Z,61.70
2019-03-09T12:17:52.567Z,62.00
2019-03-09T12:23:01.705Z,61.80
2019-03-09T12:28:04.691Z,62.10
2019-03-09T12:33:08.786Z,62.00
2019-03-09T12:38:12.730Z,61.60
2019-03-09T12:43:17.272Z,61.60
2019-03-09T12:48:21.383Z,61.40
2019-03-09T12:53:25.665Z,61.20
2019-03-09T12:58:29.973Z,60.80
2019-03-09T13:03:34.523Z,61.00
2019-03-09T13:08:38.624Z,61.00
2019-03-09T13:13:42.550Z,60.90
2019-03-09T13:18:46.848Z,60.50
2019-03-09T13:23:51.439Z,59.80
2019-03-09T13:28:55.566Z,60.00
2019-03-09T13:33:59.863Z,59.80
2019-03-09T13:39:05.579Z,60.10
2019-03-09T13:44:09.807Z,59.40
2019-03-09T13:49:13.963Z,59.80
2019-03-09T13:54:18.382Z,59.10
2019-03-09T13:59:22.520Z,59.10
2019-03-09T14:04:26.797Z,59.00
2019-03-09T14:09:30.867Z,58.80
2019-03-09T14:14:35.194Z,58.90
2019-03-09T14:19:39.277Z,58.80
2019-03-09T14:24:43.531Z,58.90
2019-03-09T14:29:48.071Z,58.80
2019-03-09T14:34:52.371Z,58.80
2019-03-09T14:39:56.987Z,60.20
2019-03-09T14:45:01.281Z,60.00
2019-03-09T14:50:05.453Z,60.60
2019-03-09T14:55:09.626Z,61.10
2019-03-09T15:00:16.589Z,61.60
2019-03-09T15:05:20.807Z,62.40
2019-03-09T15:10:24.783Z,62.00
2019-03-09T15:15:29.103Z,62.30
2019-03-09T15:20:33.527Z,63.50
2019-03-09T15:25:37.950Z,62.70
2019-03-09T15:30:42.094Z,62.90
2019-03-09T15:35:46.654Z,62.90
2019-03-09T15:40:51.105Z,63.00
2019-03-09T15:45:55.195Z,63.40
2019-03-09T15:50:59.524Z,63.30
2019-03-09T15:56:04.305Z,63.20
2019-03-09T16:01:08.355Z,63.60
2019-03-09T16:06:12.655Z,63.50
2019-03-09T16:11:17.111Z,64.40
2019-03-09T16:16:21.094Z,63.80
2019-03-09T16:21:25.227Z,63.00
2019-03-09T16:26:29.235Z,62.80
2019-03-09T16:31:33.319Z,62.50
2019-03-09T16:36:37.836Z,61.70
2019-03-09T16:41:42.468Z,61.50
2019-03-09T16:46:48.172Z,61.30
2019-03-09T16:51:52.375Z,61.00
2019-03-09T16:56:56.417Z,61.30
2019-03-09T17:02:00.655Z,60.20
2019-03-09T17:07:04.763Z,60.30
2019-03-09T17:12:09.192Z,60.10
2019-03-09T17:17:13.182Z,59.70
2019-03-09T17:22:17.639Z,59.60
2019-03-09T17:27:21.912Z,59.10
2019-03-09T17:32:26.208Z,58.70
2019-03-09T17:37:30.752Z,58.70
2019-03-09T17:42:35.504Z,59.00
2019-03-09T17:47:39.757Z,59.00
2019-03-09T17:52:44.050Z,58.90
2019-03-09T17:57:48.450Z,58.80
2019-03-09T18:02:53.425Z,59.00
2019-03-09T18:07:58.062Z,58.90
2019-03-09T18:13:02.753Z,58.90
2019-03-09T18:18:07.170Z,58.90
2019-03-09T18:23:11.380Z,59.10
2019-03-09T18:28:15.723Z,58.90
2019-03-09T18:33:20.035Z,59.10
2019-03-09T18:38:24.501Z,58.90
2019-03-09T18:43:28.817Z,58.80
2019-03-09T18:48:33.326Z,59.90
2019-03-09T18:53:37.986Z,58.80
2019-03-09T18:58:42.324Z,58.90
2019-03-09T19:03:46.310Z,59.20
2019-03-09T19:08:50.714Z,58.70
2019-03-09T19:13:55.031Z,58.90
2019-03-09T19:18:59.231Z,59.00
2019-03-09T19:24:04.092Z,58.70
2019-03-09T19:29:08.387Z,58.70
2019-03-09T19:34:12.631Z,59.00
2019-03-09T19:39:16.871Z,58.80
2019-03-09T19:44:20.949Z,58.90
2019-03-09T19:49:25.212Z,59.20
2019-03-09T19:54:29.479Z,59.10
2019-03-09T19:59:34.072Z,59.00
2019-03-09T20:04:38.200Z,59.10
2019-03-09T20:09:42.735Z,59.20
2019-03-09T20:14:47.223Z,64.20
2019-03-09T20:19:51.584Z,58.80
2019-03-09T20:24:55.585Z,58.60
2019-03-09T20:29:59.913Z,58.80
2019-03-09T20:35:04.066Z,58.90
2019-03-09T20:40:09.677Z,58.80
2019-03-09T20:45:14.874Z,58.80
2019-03-09T20:50:19.347Z,58.90
2019-03-09T20:55:33.385Z,58.90
2019-03-09T21:00:37.672Z,59.10
2019-03-09T21:05:41.875Z,58.70
2019-03-09T21:10:46.142Z,58.80
2019-03-09T21:15:50.147Z,59.00
2019-03-09T21:20:54.372Z,59.00
2019-03-09T21:25:58.635Z,59.00
2019-03-09T21:31:02.723Z,58.80
2019-03-09T21:36:06.995Z,58.90
2019-03-09T21:41:11.296Z,59.10
2019-03-09T21:46:15.819Z,58.80
2019-03-09T21:51:19.914Z,59.10
2019-03-09T21:56:24.734Z,58.90
2019-03-09T22:01:28.736Z,59.10
2019-03-09T22:06:33.012Z,59.20
2019-03-09T22:11:37.563Z,59.00
2019-03-09T22:16:42.187Z,59.30
2019-03-09T22:21:46.979Z,59.20
2019-03-09T22:26:51.479Z,59.10
2019-03-09T22:31:56.134Z,59.30
2019-03-09T22:37:00.363Z,58.90
2019-03-09T22:42:05.039Z,59.00
2019-03-09T22:47:11.918Z,59.00
2019-03-09T22:52:15.404Z,59.10
2019-03-09T22:57:19.640Z,58.80
2019-03-09T23:02:24.211Z,58.80
2019-03-09T23:07:28.708Z,58.60
2019-03-09T23:12:33.028Z,58.80
2019-03-09T23:17:37.017Z,58.80
2019-03-09T23:22:41.502Z,58.70
2019-03-09T23:27:45.865Z,58.60
2019-03-09T23:32:49.844Z,58.50
2019-03-09T23:37:53.920Z,58.40
2019-03-09T23:42:58.523Z,58.50
2019-03-09T23:48:03.114Z,58.40
2019-03-09T23:53:07.180Z,58.40
2019-03-09T23:58:11.235Z,58.00
